createdAt,value
2022-09-24T00:00:17.920Z,1009.06
2022-09-24T00:01:17.928Z,1009.06
2022-09-24T00:02:17.978Z,1009.08
2022-09-24T00:03:18.012Z,1009.04
2022-09-24T00:04:17.972Z,1009.06
2022-09-24T00:05:17.990Z,1009.08
2022-09-24T00:06:18.005Z,1009.05
2022-09-24T00:07:18.018Z,1009.07
2022-09-24T00:08:18.034Z,1009.07
2022-09-24T00:09:18.046Z,1009.05
2022-09-24T00:10:18.062Z,1009.04
2022-09-24T00:11:18.074Z,1009.05
2022-09-24T00:12:18.091Z,1009.03
2022-09-24T00:13:18.105Z,1008.99
2022-09-24T00:14:18.122Z,1009.07
2022-09-24T00:15:18.138Z,1008.98
2022-09-24T00:16:18.182Z,1009.04
2022-09-24T00:17:18.165Z,1008.98
2022-09-24T00:18:18.177Z,1009.00
2022-09-24T00:19:18.197Z,1009.01
2022-09-24T00:20:18.210Z,1008.98
2022-09-24T00:21:18.224Z,1008.97
2022-09-24T00:22:18.240Z,1009.00
2022-09-24T00:23:18.256Z,1009.04
2022-09-24T00:24:18.269Z,1009.01
2022-09-24T00:25:18.284Z,1009.03
2022-09-24T00:26:18.300Z,1009.02
2022-09-24T00:27:18.313Z,1009.01
2022-09-24T00:28:18.328Z,1009.01
2022-09-24T00:29:18.346Z,1008.98
2022-09-24T00:30:18.357Z,1009.00
2022-09-24T00:31:18.488Z,1008.97
2022-09-24T00:32:18.389Z,1008.94
2022-09-24T00:33:18.401Z,1008.96
2022-09-24T00:34:18.416Z,1008.95
2022-09-24T00:35:18.432Z,1008.91
2022-09-24T00:36:18.447Z,1008.89
2022-09-24T00:37:18.462Z,1008.90
2022-09-24T00:38:18.475Z,1008.87
2022-09-24T00:39:18.489Z,1008.90
2022-09-24T00:40:18.571Z,1008.89
2022-09-24T00:41:18.516Z,1008.87
2022-09-24T00:42:18.535Z,1008.81
2022-09-24T00:43:18.547Z,1008.83
2022-09-24T00:44:18.570Z,1008.85
2022-09-24T00:45:18.575Z,1008.82
2022-09-24T00:46:18.631Z,1008.81
2022-09-24T00:47:18.605Z,1008.79
2022-09-24T00:48:18.621Z,1008.78
2022-09-24T00:49:18.635Z,1008.77
2022-09-24T00:50:18.652Z,1008.78
2022-09-24T00:51:18.664Z,1008.75
2022-09-24T00:52:18.677Z,1008.74
2022-09-24T00:53:18.693Z,1008.78
2022-09-24T00:54:18.706Z,1008.76
2022-09-24T00:55:18.721Z,1008.75
2022-09-24T00:56:18.732Z,1008.75
2022-09-24T00:57:18.749Z,1008.76
2022-09-24T00:58:18.764Z,1008.74
2022-09-24T00:59:18.778Z,1008.71
2022-09-24T01:00:18.795Z,1008.71
2022-09-24T01:01:18.867Z,1008.69
2022-09-24T01:02:18.879Z,1008.68
2022-09-24T01:03:18.836Z,1008.68
2022-09-24T01:04:18.851Z,1008.66
2022-09-24T01:05:18.866Z,1008.69
2022-09-24T01:06:18.879Z,1008.67
2022-09-24T01:07:18.894Z,1008.62
2022-09-24T01:08:18.916Z,1008.63
2022-09-24T01:09:18.927Z,1008.63
2022-09-24T01:10:18.937Z,1008.61
2022-09-24T01:11:18.953Z,1008.60
2022-09-24T01:12:18.969Z,1008.61
2022-09-24T01:13:18.980Z,1008.58
2022-09-24T01:14:18.995Z,1008.56
2022-09-24T01:15:19.015Z,1008.57
2022-09-24T01:16:19.140Z,1008.56
2022-09-24T01:17:19.054Z,1008.57
2022-09-24T01:18:19.061Z,1008.58
2022-09-24T01:19:19.068Z,1008.58
2022-09-24T01:20:19.090Z,1008.57
2022-09-24T01:21:19.125Z,1008.56
2022-09-24T01:22:19.111Z,1008.55
2022-09-24T01:23:19.124Z,1008.54
2022-09-24T01:24:19.138Z,1008.51
2022-09-24T01:25:19.155Z,1008.50
2022-09-24T01:26:19.167Z,1008.49
2022-09-24T01:27:19.183Z,1008.51
2022-09-24T01:28:19.198Z,1008.47
2022-09-24T01:29:19.213Z,1008.47
2022-09-24T01:30:19.227Z,1008.48
2022-09-24T01:31:19.295Z,1008.48
2022-09-24T01:32:19.253Z,1008.47
2022-09-24T01:33:19.270Z,1008.41
2022-09-24T01:34:19.283Z,1008.48
2022-09-24T01:35:19.302Z,1008.46
2022-09-24T01:36:19.314Z,1008.43
2022-09-24T01:37:19.326Z,1008.43
2022-09-24T01:38:19.344Z,1008.45
2022-09-24T01:39:19.357Z,1008.41
2022-09-24T01:40:19.416Z,1008.39
2022-09-24T01:41:19.387Z,1008.34
2022-09-24T01:42:19.401Z,1008.34
2022-09-24T01:43:19.416Z,1008.33
2022-09-24T01:44:19.430Z,1008.36
2022-09-24T01:45:19.443Z,1008.34
2022-09-24T01:46:19.530Z,1008.35
2022-09-24T01:47:19.473Z,1008.31
2022-09-24T01:48:19.518Z,1008.29
2022-09-24T01:49:19.503Z,1008.30
2022-09-24T01:50:19.517Z,1008.28
2022-09-24T01:51:19.534Z,1008.30
2022-09-24T01:52:19.548Z,1008.26
2022-09-24T01:53:19.560Z,1008.25
2022-09-24T01:54:19.574Z,1008.24
2022-09-24T01:55:19.666Z,1008.25
2022-09-24T01:56:19.608Z,1008.26
2022-09-24T01:57:19.619Z,1008.26
2022-09-24T01:58:19.635Z,1008.23
2022-09-24T01:59:19.649Z,1008.26
2022-09-24T02:00:19.663Z,1008.23
2022-09-24T02:01:19.722Z,1008.21
2022-09-24T02:02:19.748Z,1008.23
2022-09-24T02:03:19.712Z,1008.19
2022-09-24T02:04:19.721Z,1008.22
2022-09-24T02:05:19.737Z,1008.19
2022-09-24T02:06:19.755Z,1008.20
2022-09-24T02:07:19.768Z,1008.17
2022-09-24T02:08:19.782Z,1008.19
2022-09-24T02:09:19.797Z,1008.18
2022-09-24T02:10:19.814Z,1008.18
2022-09-24T02:11:19.827Z,1008.17
2022-09-24T02:12:19.846Z,1008.18
2022-09-24T02:13:19.859Z,1008.17
2022-09-24T02:14:19.870Z,1008.13
2022-09-24T02:15:19.885Z,1008.16
2022-09-24T02:16:19.924Z,1008.14
2022-09-24T02:17:19.914Z,1008.21
2022-09-24T02:18:19.932Z,1008.14
2022-09-24T02:19:19.946Z,1008.15
2022-09-24T02:20:19.960Z,1008.12
2022-09-24T02:21:19.973Z,1008.09
2022-09-24T02:22:19.989Z,1008.09
2022-09-24T02:23:20.005Z,1008.07
2022-09-24T02:24:20.020Z,1008.08
2022-09-24T02:25:20.038Z,1008.04
2022-09-24T02:26:20.048Z,1008.03
2022-09-24T02:27:20.073Z,1008.06
2022-09-24T02:28:20.079Z,1008.02
2022-09-24T02:29:20.093Z,1008.01
2022-09-24T02:30:20.108Z,1008.01
2022-09-24T02:31:20.211Z,1007.99
2022-09-24T02:32:20.140Z,1007.99
2022-09-24T02:33:20.153Z,1008.01
2022-09-24T02:34:20.170Z,1008.01
2022-09-24T02:35:20.184Z,1008.01
2022-09-24T02:36:20.199Z,1008.02
2022-09-24T02:37:20.214Z,1008.00
2022-09-24T02:38:20.230Z,1008.03
2022-09-24T02:39:20.245Z,1008.05
2022-09-24T02:40:20.323Z,1008.10
2022-09-24T02:41:20.272Z,1008.10
2022-09-24T02:42:20.291Z,1008.13
2022-09-24T02:43:20.305Z,1008.15
2022-09-24T02:44:20.320Z,1008.11
2022-09-24T02:45:20.333Z,1008.09
2022-09-24T02:46:20.439Z,1008.08
2022-09-24T02:47:20.363Z,1008.11
2022-09-24T02:48:20.380Z,1008.12
2022-09-24T02:49:20.405Z,1008.17
2022-09-24T02:50:20.411Z,1008.10
2022-09-24T02:51:20.424Z,1008.04
2022-09-24T02:52:20.442Z,1008.05
2022-09-24T02:53:20.465Z,1008.03
2022-09-24T02:54:20.469Z,1008.02
2022-09-24T02:55:20.486Z,1008.03
2022-09-24T02:56:20.499Z,1008.06
2022-09-24T02:57:20.523Z,1008.04
2022-09-24T02:58:20.529Z,1008.05
2022-09-24T02:59:20.544Z,1008.07
2022-09-24T03:00:20.558Z,1008.03
2022-09-24T03:01:20.658Z,1007.99
2022-09-24T03:02:20.715Z,1007.99
2022-09-24T03:03:20.604Z,1007.95
2022-09-24T03:04:20.618Z,1008.00
2022-09-24T03:05:20.638Z,1008.00
2022-09-24T03:06:20.653Z,1007.96
2022-09-24T03:07:20.668Z,1007.96
2022-09-24T03:08:20.679Z,1007.98
2022-09-24T03:09:20.696Z,1007.95
2022-09-24T03:10:20.710Z,1007.95
2022-09-24T03:11:20.725Z,1007.96
2022-09-24T03:12:20.739Z,1007.96
2022-09-24T03:13:20.759Z,1007.96
2022-09-24T03:14:20.770Z,1007.92
2022-09-24T03:15:20.783Z,1007.95
2022-09-24T03:16:20.915Z,1007.97
2022-09-24T03:17:20.815Z,1007.94
2022-09-24T03:18:20.828Z,1007.96
2022-09-24T03:19:20.850Z,1007.92
2022-09-24T03:20:20.860Z,1007.89
2022-09-24T03:21:20.876Z,1007.86
2022-09-24T03:22:20.890Z,1007.93
2022-09-24T03:23:20.908Z,1007.91
2022-09-24T03:24:20.922Z,1007.92
2022-09-24T03:25:20.944Z,1007.90
2022-09-24T03:26:20.958Z,1007.88
2022-09-24T03:27:20.969Z,1007.91
2022-09-24T03:28:20.981Z,1007.85
2022-09-24T03:29:21.003Z,1007.89
2022-09-24T03:30:21.023Z,1007.86
2022-09-24T03:31:21.061Z,1007.84
2022-09-24T03:32:21.045Z,1007.81
2022-09-24T03:33:21.054Z,1007.84
2022-09-24T03:34:21.070Z,1007.77
2022-09-24T03:35:21.084Z,1007.84
2022-09-24T03:36:21.098Z,1007.76
2022-09-24T03:37:21.115Z,1007.78
2022-09-24T03:38:21.131Z,1007.76
2022-09-24T03:39:21.146Z,1007.77
2022-09-24T03:40:21.209Z,1007.78
2022-09-24T03:41:21.176Z,1007.78
2022-09-24T03:42:21.191Z,1007.78
2022-09-24T03:43:21.213Z,1007.78
2022-09-24T03:44:21.221Z,1007.80
2022-09-24T03:45:21.235Z,1007.76
2022-09-24T03:46:21.289Z,1007.74
2022-09-24T03:47:21.265Z,1007.78
2022-09-24T03:48:21.281Z,1007.76
2022-09-24T03:49:21.294Z,1007.77
2022-09-24T03:50:21.312Z,1007.74
2022-09-24T03:51:21.337Z,1007.75
2022-09-24T03:52:21.341Z,1007.71
2022-09-24T03:53:21.355Z,1007.71
2022-09-24T03:54:21.372Z,1007.73
2022-09-24T03:55:21.388Z,1007.68
2022-09-24T03:56:21.402Z,1007.68
2022-09-24T03:57:21.416Z,1007.71
2022-09-24T03:58:21.432Z,1007.69
2022-09-24T03:59:21.446Z,1007.66
2022-09-24T04:00:21.462Z,1007.67
2022-09-24T04:01:21.724Z,1007.65
2022-09-24T04:02:21.492Z,1007.65
2022-09-24T04:03:21.581Z,1007.66
2022-09-24T04:04:21.524Z,1007.66
2022-09-24T04:05:21.537Z,1007.64
2022-09-24T04:06:25.755Z,1007.67
2022-09-24T04:07:21.568Z,1007.62
2022-09-24T04:08:21.584Z,1007.64
2022-09-24T04:09:21.600Z,1007.69
2022-09-24T04:10:21.611Z,1007.65
2022-09-24T04:11:21.645Z,1007.64
2022-09-24T04:12:21.643Z,1007.62
2022-09-24T04:13:21.657Z,1007.63
2022-09-24T04:14:21.673Z,1007.63
2022-09-24T04:15:21.694Z,1007.61
2022-09-24T04:16:21.809Z,1007.61
2022-09-24T04:17:21.719Z,1007.56
2022-09-24T04:18:21.732Z,1007.59
2022-09-24T04:19:21.755Z,1007.62
2022-09-24T04:20:21.764Z,1007.60
2022-09-24T04:21:21.777Z,1007.64
2022-09-24T04:22:21.794Z,1007.61
2022-09-24T04:23:21.807Z,1007.63
2022-09-24T04:24:21.822Z,1007.66
2022-09-24T04:25:21.839Z,1007.65
2022-09-24T04:26:21.853Z,1007.61
2022-09-24T04:27:21.867Z,1007.61
2022-09-24T04:28:21.883Z,1007.62
2022-09-24T04:29:21.903Z,1007.63
2022-09-24T04:30:21.913Z,1007.59
2022-09-24T04:31:21.960Z,1007.59
2022-09-24T04:32:21.945Z,1007.66
2022-09-24T04:33:21.957Z,1007.66
2022-09-24T04:34:21.973Z,1007.66
2022-09-24T04:35:21.991Z,1007.63
2022-09-24T04:36:22.003Z,1007.66
2022-09-24T04:37:22.020Z,1007.65
2022-09-24T04:38:22.033Z,1007.66
2022-09-24T04:39:22.047Z,1007.67
2022-09-24T04:40:22.163Z,1007.64
2022-09-24T04:41:22.077Z,1007.66
2022-09-24T04:42:22.094Z,1007.65
2022-09-24T04:43:22.108Z,1007.63
2022-09-24T04:44:22.123Z,1007.65
2022-09-24T04:45:22.168Z,1007.64
2022-09-24T04:46:22.215Z,1007.66
2022-09-24T04:47:22.168Z,1007.64
2022-09-24T04:48:22.185Z,1007.63
2022-09-24T04:49:22.198Z,1007.64
2022-09-24T04:50:22.213Z,1007.65
2022-09-24T04:51:22.231Z,1007.67
2022-09-24T04:52:22.245Z,1007.68
2022-09-24T04:53:22.257Z,1007.70
2022-09-24T04:54:22.274Z,1007.66
2022-09-24T04:55:22.301Z,1007.66
2022-09-24T04:56:22.304Z,1007.70
2022-09-24T04:57:22.318Z,1007.69
2022-09-24T04:58:22.333Z,1007.69
2022-09-24T04:59:22.348Z,1007.68
2022-09-24T05:00:22.367Z,1007.70
2022-09-24T05:01:22.451Z,1007.71
2022-09-24T05:02:22.519Z,1007.71
2022-09-24T05:03:22.411Z,1007.70
2022-09-24T05:04:22.424Z,1007.68
2022-09-24T05:05:22.439Z,1007.70
2022-09-24T05:06:22.484Z,1007.67
2022-09-24T05:07:22.476Z,1007.69
2022-09-24T05:08:22.496Z,1007.65
2022-09-24T05:09:22.499Z,1007.66
2022-09-24T05:10:22.514Z,1007.64
2022-09-24T05:11:22.529Z,1007.64
2022-09-24T05:12:22.543Z,1007.68
2022-09-24T05:13:22.560Z,1007.71
2022-09-24T05:14:22.574Z,1007.72
2022-09-24T05:15:22.591Z,1007.65
2022-09-24T05:16:22.709Z,1007.70
2022-09-24T05:17:22.624Z,1007.66
2022-09-24T05:18:22.634Z,1007.67
2022-09-24T05:19:22.651Z,1007.70
2022-09-24T05:20:22.666Z,1007.68
2022-09-24T05:21:22.682Z,1007.69
2022-09-24T05:22:22.695Z,1007.68
2022-09-24T05:23:22.709Z,1007.73
2022-09-24T05:24:22.726Z,1007.71
2022-09-24T05:25:22.739Z,1007.70
2022-09-24T05:26:22.756Z,1007.69
2022-09-24T05:27:22.776Z,1007.77
2022-09-24T05:28:22.786Z,1007.71
2022-09-24T05:29:22.801Z,1007.70
2022-09-24T05:30:22.820Z,1007.73
2022-09-24T05:31:22.863Z,1007.76
2022-09-24T05:32:22.860Z,1007.67
2022-09-24T05:33:22.879Z,1007.67
2022-09-24T05:34:22.882Z,1007.70
2022-09-24T05:35:22.980Z,1007.73
2022-09-24T05:36:22.920Z,1007.71
2022-09-24T05:37:22.937Z,1007.70
2022-09-24T05:38:22.958Z,1007.70
2022-09-24T05:39:22.952Z,1007.70
2022-09-24T05:40:23.217Z,1007.66
2022-09-24T05:41:22.982Z,1007.71
2022-09-24T05:42:23.000Z,1007.66
2022-09-24T05:43:23.016Z,1007.71
2022-09-24T05:44:23.038Z,1007.66
2022-09-24T05:45:23.045Z,1007.66
2022-09-24T05:46:23.073Z,1007.69
2022-09-24T05:47:23.077Z,1007.66
2022-09-24T05:48:23.092Z,1007.66
2022-09-24T05:49:23.112Z,1007.72
2022-09-24T05:50:23.125Z,1007.67
2022-09-24T05:51:23.140Z,1007.72
2022-09-24T05:52:23.156Z,1007.71
2022-09-24T05:53:23.172Z,1007.74
2022-09-24T05:54:23.188Z,1007.69
2022-09-24T05:55:23.202Z,1007.71
2022-09-24T05:56:23.217Z,1007.69
2022-09-24T05:57:23.234Z,1007.72
2022-09-24T05:58:23.248Z,1007.75
2022-09-24T05:59:23.265Z,1007.77
2022-09-24T06:00:23.281Z,1007.77
2022-09-24T06:01:23.340Z,1007.79
2022-09-24T06:02:23.371Z,1007.78
2022-09-24T06:03:23.416Z,1007.80
2022-09-24T06:04:23.345Z,1007.84
2022-09-24T06:05:23.358Z,1007.84
2022-09-24T06:06:23.374Z,1007.82
2022-09-24T06:07:23.392Z,1007.89
2022-09-24T06:08:23.408Z,1007.85
2022-09-24T06:09:23.421Z,1007.88
2022-09-24T06:10:23.440Z,1007.89
2022-09-24T06:11:23.453Z,1007.87
2022-09-24T06:12:23.477Z,1007.85
2022-09-24T06:13:23.484Z,1007.87
2022-09-24T06:14:23.502Z,1007.84
2022-09-24T06:15:23.517Z,1007.87
2022-09-24T06:16:23.661Z,1007.83
2022-09-24T06:17:23.549Z,1007.88
2022-09-24T06:18:23.565Z,1007.88
2022-09-24T06:19:23.583Z,1007.89
2022-09-24T06:20:23.600Z,1007.87
2022-09-24T06:21:23.612Z,1007.90
2022-09-24T06:22:28.167Z,1007.93
2022-09-24T06:23:23.646Z,1007.92
2022-09-24T06:24:23.660Z,1007.94
2022-09-24T06:25:23.675Z,1007.97
2022-09-24T06:26:23.695Z,1007.94
2022-09-24T06:27:23.709Z,1007.96
2022-09-24T06:28:23.724Z,1007.96
2022-09-24T06:29:23.741Z,1007.93
2022-09-24T06:30:23.761Z,1007.88
2022-09-24T06:31:23.807Z,1007.87
2022-09-24T06:32:23.791Z,1007.85
2022-09-24T06:33:23.804Z,1007.91
2022-09-24T06:34:23.823Z,1007.86
2022-09-24T06:35:23.840Z,1007.88
2022-09-24T06:36:23.853Z,1007.88
2022-09-24T06:37:23.868Z,1007.88
2022-09-24T06:38:23.884Z,1007.88
2022-09-24T06:39:23.903Z,1007.88
2022-09-24T06:40:24.023Z,1007.87
2022-09-24T06:41:23.933Z,1007.87
2022-09-24T06:42:23.950Z,1007.93
2022-09-24T06:43:23.970Z,1007.90
2022-09-24T06:44:23.985Z,1007.92
2022-09-24T06:45:24.001Z,1007.99
2022-09-24T06:46:24.084Z,1007.96
2022-09-24T06:47:24.047Z,1007.99
2022-09-24T06:48:24.048Z,1008.01
2022-09-24T06:49:24.065Z,1007.98
2022-09-24T06:50:24.081Z,1007.93
2022-09-24T06:51:24.100Z,1007.93
2022-09-24T06:52:24.114Z,1007.91
2022-09-24T06:53:24.133Z,1007.91
2022-09-24T06:54:24.148Z,1007.92
2022-09-24T06:55:24.162Z,1007.88
2022-09-24T06:56:24.182Z,1007.88
2022-09-24T06:57:28.669Z,1007.87
2022-09-24T06:58:24.218Z,1007.90
2022-09-24T06:59:24.236Z,1007.90
2022-09-24T07:00:24.285Z,1007.89
2022-09-24T07:01:24.346Z,1007.92
2022-09-24T07:02:24.366Z,1007.99
2022-09-24T07:03:24.302Z,1007.98
2022-09-24T07:04:24.318Z,1008.00
2022-09-24T07:05:24.335Z,1008.03
2022-09-24T07:06:24.356Z,1008.04
2022-09-24T07:07:24.371Z,1008.03
2022-09-24T07:08:24.390Z,1008.04
2022-09-24T07:09:24.404Z,1008.05
2022-09-24T07:10:24.477Z,1008.05
2022-09-24T07:11:24.439Z,1008.07
2022-09-24T07:12:24.458Z,1008.08
2022-09-24T07:13:24.473Z,1008.07
2022-09-24T07:14:24.490Z,1008.11
2022-09-24T07:15:24.508Z,1008.09
2022-09-24T07:16:24.602Z,1008.11
2022-09-24T07:17:24.545Z,1008.05
2022-09-24T07:18:24.563Z,1008.11
2022-09-24T07:19:24.579Z,1008.14
2022-09-24T07:20:24.705Z,1008.18
2022-09-24T07:21:24.618Z,1008.13
2022-09-24T07:22:24.632Z,1008.14
2022-09-24T07:23:24.653Z,1008.16
2022-09-24T07:24:24.669Z,1008.15
2022-09-24T07:25:24.700Z,1008.13
2022-09-24T07:26:24.701Z,1008.16
2022-09-24T07:27:24.718Z,1008.12
2022-09-24T07:28:24.751Z,1008.11
2022-09-24T07:29:24.766Z,1008.08
2022-09-24T07:30:24.786Z,1008.11
2022-09-24T07:31:25.013Z,1008.13
2022-09-24T07:32:29.573Z,1008.10
2022-09-24T07:33:24.831Z,1008.11
2022-09-24T07:34:24.859Z,1008.10
2022-09-24T07:35:24.864Z,1008.11
2022-09-24T07:36:24.882Z,1008.10
2022-09-24T07:37:24.900Z,1008.10
2022-09-24T07:38:24.917Z,1008.09
2022-09-24T07:39:24.935Z,1008.09
2022-09-24T07:40:25.084Z,1008.12
2022-09-24T07:41:24.970Z,1008.09
2022-09-24T07:42:24.990Z,1008.10
2022-09-24T07:43:25.009Z,1008.07
2022-09-24T07:44:25.025Z,1008.12
2022-09-24T07:45:25.042Z,1008.10
2022-09-24T07:46:25.092Z,1008.11
2022-09-24T07:47:25.078Z,1008.10
2022-09-24T07:48:25.096Z,1008.14
2022-09-24T07:49:25.116Z,1008.19
2022-09-24T07:50:25.130Z,1008.22
2022-09-24T07:51:25.149Z,1008.22
2022-09-24T07:52:25.169Z,1008.26
2022-09-24T07:53:25.187Z,1008.24
2022-09-24T07:54:25.204Z,1008.28
2022-09-24T07:55:25.221Z,1008.24
2022-09-24T07:56:25.243Z,1008.27
2022-09-24T07:57:25.258Z,1008.25
2022-09-24T07:58:25.283Z,1008.26
2022-09-24T07:59:25.296Z,1008.30
2022-09-24T08:00:25.312Z,1008.33
2022-09-24T08:01:25.348Z,1008.24
2022-09-24T08:02:25.348Z,1008.30
2022-09-24T08:03:25.394Z,1008.30
2022-09-24T08:04:25.433Z,1008.31
2022-09-24T08:05:25.408Z,1008.31
2022-09-24T08:06:25.421Z,1008.36
2022-09-24T08:07:25.440Z,1008.31
2022-09-24T08:08:25.458Z,1008.34
2022-09-24T08:09:25.476Z,1008.32
2022-09-24T08:10:25.495Z,1008.31
2022-09-24T08:11:25.513Z,1008.36
2022-09-24T08:12:25.533Z,1008.33
2022-09-24T08:13:27.771Z,1008.28
2022-09-24T08:14:25.570Z,1008.30
2022-09-24T08:15:25.587Z,1008.29
2022-09-24T08:16:25.659Z,1008.33
2022-09-24T08:17:25.625Z,1008.28
2022-09-24T08:18:25.643Z,1008.30
2022-09-24T08:19:25.663Z,1008.26
2022-09-24T08:20:25.682Z,1008.30
2022-09-24T08:21:25.702Z,1008.31
2022-09-24T08:22:25.719Z,1008.28
2022-09-24T08:23:25.748Z,1008.26
2022-09-24T08:24:25.759Z,1008.24
2022-09-24T08:25:25.776Z,1008.28
2022-09-24T08:26:25.795Z,1008.23
2022-09-24T08:27:25.815Z,1008.28
2022-09-24T08:28:25.836Z,1008.29
2022-09-24T08:29:25.855Z,1008.29
2022-09-24T08:30:25.874Z,1008.26
2022-09-24T08:31:25.958Z,1008.28
2022-09-24T08:32:25.912Z,1008.29
2022-09-24T08:33:25.932Z,1008.28
2022-09-24T08:34:25.950Z,1008.28
2022-09-24T08:35:25.968Z,1008.31
2022-09-24T08:36:25.989Z,1008.26
2022-09-24T08:37:26.007Z,1008.30
2022-09-24T08:38:26.030Z,1008.28
2022-09-24T08:39:26.046Z,1008.31
2022-09-24T08:40:26.145Z,1008.29
2022-09-24T08:41:26.089Z,1008.29
2022-09-24T08:42:26.104Z,1008.30
2022-09-24T08:43:26.124Z,1008.31
2022-09-24T08:44:26.154Z,1008.30
2022-09-24T08:45:26.164Z,1008.27
2022-09-24T08:46:26.222Z,1008.29
2022-09-24T08:47:26.203Z,1008.31
2022-09-24T08:48:26.225Z,1008.30
2022-09-24T08:49:26.242Z,1008.31
2022-09-24T08:50:26.263Z,1008.31
2022-09-24T08:51:28.162Z,1008.29
2022-09-24T08:52:26.303Z,1008.33
2022-09-24T08:53:26.336Z,1008.34
2022-09-24T08:54:26.341Z,1008.33
2022-09-24T08:55:26.362Z,1008.32
2022-09-24T08:56:26.382Z,1008.35
2022-09-24T08:57:26.401Z,1008.32
2022-09-24T08:58:26.422Z,1008.31
2022-09-24T08:59:26.440Z,1008.32
2022-09-24T09:00:26.461Z,1008.30
2022-09-24T09:01:26.554Z,1008.28
2022-09-24T09:02:26.655Z,1008.31
2022-09-24T09:03:26.531Z,1008.32
2022-09-24T09:04:26.541Z,1008.32
2022-09-24T09:05:26.561Z,1008.34
2022-09-24T09:06:26.586Z,1008.33
2022-09-24T09:07:26.606Z,1008.32
2022-09-24T09:08:54.606Z,1008.32
2022-09-24T09:09:26.640Z,1008.35
2022-09-24T09:10:26.666Z,1008.36
2022-09-24T09:11:26.682Z,1008.43
2022-09-24T09:12:26.705Z,1008.40
2022-09-24T09:13:26.733Z,1008.42
2022-09-24T09:14:30.611Z,1008.44
2022-09-24T09:15:26.761Z,1008.41
2022-09-24T09:16:26.857Z,1008.40
2022-09-24T09:17:26.802Z,1008.38
2022-09-24T09:18:26.826Z,1008.40
2022-09-24T09:19:26.847Z,1008.39
2022-09-24T09:20:26.863Z,1008.36
2022-09-24T09:21:26.884Z,1008.40
2022-09-24T09:22:26.905Z,1008.39
2022-09-24T09:23:26.925Z,1008.37
2022-09-24T09:24:26.945Z,1008.38
2022-09-24T09:25:26.963Z,1008.36
2022-09-24T09:26:26.988Z,1008.35
2022-09-24T09:27:27.004Z,1008.36
2022-09-24T09:28:27.027Z,1008.35
2022-09-24T09:29:27.044Z,1008.31
2022-09-24T09:30:27.069Z,1008.34
2022-09-24T09:31:27.106Z,1008.31
2022-09-24T09:32:27.108Z,1008.31
2022-09-24T09:33:27.129Z,1008.32
2022-09-24T09:34:27.151Z,1008.29
2022-09-24T09:35:27.180Z,1008.27
2022-09-24T09:36:27.192Z,1008.31
2022-09-24T09:37:27.218Z,1008.30
2022-09-24T09:38:27.230Z,1008.32
2022-09-24T09:39:27.252Z,1008.29
2022-09-24T09:40:31.595Z,1008.31
2022-09-24T09:41:27.292Z,1008.31
2022-09-24T09:42:27.311Z,1008.31
2022-09-24T09:43:27.337Z,1008.29
2022-09-24T09:44:27.354Z,1008.31
2022-09-24T09:45:28.277Z,1008.29
2022-09-24T09:46:27.446Z,1008.29
2022-09-24T09:47:27.420Z,1008.28
2022-09-24T09:48:27.439Z,1008.29
2022-09-24T09:49:27.465Z,1008.30
2022-09-24T09:50:27.480Z,1008.31
2022-09-24T09:51:27.501Z,1008.29
2022-09-24T09:52:27.631Z,1008.28
2022-09-24T09:53:27.543Z,1008.29
2022-09-24T09:54:27.566Z,1008.25
2022-09-24T09:55:27.597Z,1008.29
2022-09-24T09:56:27.609Z,1008.25
2022-09-24T09:57:27.625Z,1008.27
2022-09-24T09:58:27.648Z,1008.27
2022-09-24T09:59:29.899Z,1008.28
2022-09-24T10:00:27.691Z,1008.26
2022-09-24T10:01:27.710Z,1008.26
2022-09-24T10:02:27.789Z,1008.24
2022-09-24T10:03:27.836Z,1008.25
2022-09-24T10:04:27.774Z,1008.24
2022-09-24T10:05:27.795Z,1008.24
2022-09-24T10:06:27.822Z,1008.20
2022-09-24T10:07:27.838Z,1008.26
2022-09-24T10:08:27.858Z,1008.27
2022-09-24T10:09:27.880Z,1008.25
2022-09-24T10:10:27.900Z,1008.25
2022-09-24T10:11:27.927Z,1008.22
2022-09-24T10:12:27.949Z,1008.27
2022-09-24T10:13:27.968Z,1008.33
2022-09-24T10:14:27.989Z,1008.28
2022-09-24T10:15:28.008Z,1008.31
2022-09-24T10:16:28.081Z,1008.27
2022-09-24T10:17:28.050Z,1008.26
2022-09-24T10:18:28.072Z,1008.28
2022-09-24T10:19:28.097Z,1008.29
2022-09-24T10:20:28.115Z,1008.29
2022-09-24T10:21:28.503Z,1008.26
2022-09-24T10:22:28.159Z,1008.26
2022-09-24T10:23:28.180Z,1008.26
2022-09-24T10:24:28.213Z,1008.29
2022-09-24T10:25:28.223Z,1008.28
2022-09-24T10:26:28.244Z,1008.28
2022-09-24T10:27:28.266Z,1008.29
2022-09-24T10:28:28.291Z,1008.28
2022-09-24T10:29:28.308Z,1008.30
2022-09-24T10:30:28.334Z,1008.28
2022-09-24T10:31:28.472Z,1008.28
2022-09-24T10:32:28.372Z,1008.26
2022-09-24T10:33:28.392Z,1008.23
2022-09-24T10:34:28.414Z,1008.21
2022-09-24T10:35:28.436Z,1008.25
2022-09-24T10:36:28.459Z,1008.24
2022-09-24T10:37:28.478Z,1008.26
2022-09-24T10:38:28.502Z,1008.25
2022-09-24T10:39:28.522Z,1008.23
2022-09-24T10:40:28.641Z,1008.26
2022-09-24T10:41:28.565Z,1008.22
2022-09-24T10:42:28.585Z,1008.24
2022-09-24T10:43:28.612Z,1008.23
2022-09-24T10:44:28.649Z,1008.27
2022-09-24T10:45:28.679Z,1008.28
2022-09-24T10:46:28.737Z,1008.29
2022-09-24T10:47:28.692Z,1008.34
2022-09-24T10:48:28.728Z,1008.30
2022-09-24T10:49:28.741Z,1008.31
2022-09-24T10:50:28.760Z,1008.28
2022-09-24T10:51:29.627Z,1008.36
2022-09-24T10:52:28.802Z,1008.39
2022-09-24T10:53:28.821Z,1008.36
2022-09-24T10:54:28.843Z,1008.37
2022-09-24T10:55:28.864Z,1008.42
2022-09-24T10:56:28.889Z,1008.39
2022-09-24T10:57:28.909Z,1008.38
2022-09-24T10:58:28.930Z,1008.43
2022-09-24T10:59:28.954Z,1008.44
2022-09-24T11:00:28.973Z,1008.40
2022-09-24T11:01:29.036Z,1008.39
2022-09-24T11:02:29.118Z,1008.44
2022-09-24T11:03:29.038Z,1008.41
2022-09-24T11:04:29.062Z,1008.44
2022-09-24T11:05:29.083Z,1008.45
2022-09-24T11:06:29.105Z,1008.39
2022-09-24T11:07:29.127Z,1008.42
2022-09-24T11:08:29.151Z,1008.42
2022-09-24T11:09:29.171Z,1008.44
2022-09-24T11:10:29.192Z,1008.44
2022-09-24T11:11:29.215Z,1008.43
2022-09-24T11:12:29.236Z,1008.40
2022-09-24T11:13:29.258Z,1008.45
2022-09-24T11:14:29.280Z,1008.43
2022-09-24T11:15:29.310Z,1008.46
2022-09-24T11:16:29.408Z,1008.48
2022-09-24T11:17:29.349Z,1008.43
2022-09-24T11:18:29.370Z,1008.41
2022-09-24T11:19:29.393Z,1008.41
2022-09-24T11:20:29.415Z,1008.38
2022-09-24T11:21:29.439Z,1008.35
2022-09-24T11:22:29.469Z,1008.36
2022-09-24T11:23:29.480Z,1008.34
2022-09-24T11:24:29.502Z,1008.32
2022-09-24T11:25:29.525Z,1008.30
2022-09-24T11:26:29.548Z,1008.29
2022-09-24T11:27:29.571Z,1008.30
2022-09-24T11:28:29.594Z,1008.27
2022-09-24T11:29:33.357Z,1008.31
2022-09-24T11:30:29.639Z,1008.28
2022-09-24T11:31:29.678Z,1008.29
2022-09-24T11:32:29.683Z,1008.33
2022-09-24T11:33:29.707Z,1008.32
2022-09-24T11:34:29.736Z,1008.29
2022-09-24T11:35:29.754Z,1008.31
2022-09-24T11:36:29.772Z,1008.30
2022-09-24T11:37:29.801Z,1008.26
2022-09-24T11:38:29.818Z,1008.24
2022-09-24T11:39:29.849Z,1008.26
2022-09-24T11:40:29.970Z,1008.26
2022-09-24T11:41:29.885Z,1008.24
2022-09-24T11:42:29.926Z,1008.25
2022-09-24T11:43:29.931Z,1008.25
2022-09-24T11:44:29.954Z,1008.23
2022-09-24T11:45:29.979Z,1008.25
2022-09-24T11:46:30.073Z,1008.24
2022-09-24T11:47:30.040Z,1008.22
2022-09-24T11:48:30.046Z,1008.20
2022-09-24T11:49:30.068Z,1008.19
2022-09-24T11:50:30.099Z,1008.20
2022-09-24T11:51:30.119Z,1008.19
2022-09-24T11:52:30.137Z,1008.19
2022-09-24T11:53:30.159Z,1008.21
2022-09-24T11:54:30.182Z,1008.17
2022-09-24T11:55:30.205Z,1008.18
2022-09-24T11:56:30.228Z,1008.18
2022-09-24T11:57:30.251Z,1008.18
2022-09-24T11:58:30.274Z,1008.18
2022-09-24T11:59:30.298Z,1008.17
2022-09-24T12:00:30.386Z,1008.15
2022-09-24T12:01:30.437Z,1008.19
2022-09-24T12:02:30.460Z,1008.17
2022-09-24T12:03:30.438Z,1008.16
2022-09-24T12:04:30.409Z,1008.16
2022-09-24T12:05:30.434Z,1008.15